Detroit Lakes, Minnesota
Current Conditions -  °F | °C
As of 10:36 AM on Tuesday 21 Oct 2014 (Local Time) from KDTL Reporting Station
Clear Clear  
Wind Chill: 40°   Ceiling: Unl
Heat Index: 46°   Visibility: 10mi
Dew Point: 41°   Wind: 16mph
Humidity: 81%   Direction: 140°SE
Pressure: 30.08"   Gusts: 20mph
Location:  46.82°N, 95.84°W
Report Text: KDTL 211536Z AUTO 14014G17KT 10SM CLR 08/05 A3008 RMK AO2
Loading
Personal Weather Stations






























Interactive Weather Map New forecast layout! Learn more

10-Day Weather Forecast

Advertisements
Track Severe Weather on mobile